Aérodrome :
LOGIN :

S'inscrire | Disclaimer

   EN    FR    IT 

 










Légende :    VFR   VFR Marginal   IFR   IFR Intensif   IFR Très Intensif
Visi : 
Plafond : 
>= 8 km
>= 3000ft
5 à 8 km
1000 à 3000 ft
1500m à 5 km
500 à 1000 ft
800 à 1500m
200 à 500 ft
< 800m
< 200 ft
Symboles :   Orages  Brouillard  Fortes neiges  Fortes précipitations  Vent > 20 kt
SIGMETs :   Divers  Orages  Givrage  Turbulence  Onde Orograph.  Cendres Volcan.






- Altitude de l'aérodrome : 1036 ft
- Code IATA : ERF


EDDE - Erfurt

DERNIER METAR :
  • 041450Z AUTO 05005KT 0200 R27/0225N FZFG VV002 M01/M01 Q1015 NOSIG

METARs EXPIRÉS :
  • 041420Z AUTO 06005KT 0150 R27/0200N FZFG VV002 M01/M01 Q1015 NOSIG
  • 041350Z AUTO 05007KT 0200 0150 R27/0200N FZFG VV002 M01/M01 Q1015 NOSIG
  • 041320Z AUTO 05006KT 0150 R27/0175N FZFG SCT002 M01/M01 Q1015 TEMPO OVC001
  • 041250Z AUTO 06005KT 030V090 0200 0150 R27/0175N FZFG SCT002 M01/M01 Q1016 NOSIG
  • 041220Z AUTO 05006KT 030V090 0200 0150 R27/0200N FZFG VV002 M01/M01 Q1016 NOSIG

TAF TAF EDDE
Valide du 04 à 12h jusqu'au 05 à 12h UTC


041100Z 0412/0512 04005KT 0300 FZFG OVC001
PROB30
TEMPO 0412/0424 0100 -FZDZ
TEMPO 0500/0512 0100 -RASN



MET'MAP, la Météo Aéronautique d'un coup d'oeil ! - Copyright ORBIFLY Décembre 2007 - Disclaimer

ORBIFLY MET'MAP TEAM :

Programmation & Développement : Alexandra Zaïnal
Sur une idée originale de : Baudouin d'Aumeries
Soutien technique & logistique : Manuel Goepfert
Assistance : Marc-Olivier Méhu




SOURCES & CREDITS :

   NOAA